sensor_id;sensor_type;location;lat;lon;timestamp;temperature;humidity
70734;DHT22;58320;48.804;9.252;2023-03-24T00:00:11;13.40;71.90
70734;DHT22;58320;48.804;9.252;2023-03-24T00:02:41;13.40;70.70
70734;DHT22;58320;48.804;9.252;2023-03-24T00:05:19;13.40;72.10
70734;DHT22;58320;48.804;9.252;2023-03-24T00:07:47;13.30;70.60
70734;DHT22;58320;48.804;9.252;2023-03-24T00:10:18;13.30;69.20
70734;DHT22;58320;48.804;9.252;2023-03-24T00:12:45;13.40;70.80
70734;DHT22;58320;48.804;9.252;2023-03-24T00:15:14;13.40;69.40
70734;DHT22;58320;48.804;9.252;2023-03-24T00:17:44;13.50;69.70
70734;DHT22;58320;48.804;9.252;2023-03-24T00:20:13;13.40;69.10
70734;DHT22;58320;48.804;9.252;2023-03-24T00:22:41;13.50;67.80
70734;DHT22;58320;48.804;9.252;2023-03-24T00:25:18;13.50;67.50
70734;DHT22;58320;48.804;9.252;2023-03-24T00:27:48;13.60;67.40
70734;DHT22;58320;48.804;9.252;2023-03-24T00:30:15;13.60;67.00
70734;DHT22;58320;48.804;9.252;2023-03-24T00:32:42;13.70;66.40
70734;DHT22;58320;48.804;9.252;2023-03-24T00:35:10;13.70;66.60
70734;DHT22;58320;48.804;9.252;2023-03-24T00:37:38;13.80;66.40
70734;DHT22;58320;48.804;9.252;2023-03-24T00:40:06;13.80;65.70
70734;DHT22;58320;48.804;9.252;2023-03-24T00:42:35;13.80;65.40
70734;DHT22;58320;48.804;9.252;2023-03-24T00:45:02;13.80;66.00
70734;DHT22;58320;48.804;9.252;2023-03-24T00:47:31;13.80;64.60
70734;DHT22;58320;48.804;9.252;2023-03-24T00:50:06;13.90;64.20
70734;DHT22;58320;48.804;9.252;2023-03-24T00:52:34;13.90;64.50
70734;DHT22;58320;48.804;9.252;2023-03-24T00:55:01;14.00;63.70
70734;DHT22;58320;48.804;9.252;2023-03-24T00:57:30;14.00;63.60
70734;DHT22;58320;48.804;9.252;2023-03-24T01:00:01;14.00;63.70
70734;DHT22;58320;48.804;9.252;2023-03-24T01:02:37;14.00;63.20
70734;DHT22;58320;48.804;9.252;2023-03-24T01:05:03;14.00;63.70
70734;DHT22;58320;48.804;9.252;2023-03-24T01:07:29;13.90;63.80
70734;DHT22;58320;48.804;9.252;2023-03-24T01:09:56;13.90;63.80
70734;DHT22;58320;48.804;9.252;2023-03-24T01:12:24;13.90;63.80
70734;DHT22;58320;48.804;9.252;2023-03-24T01:14:51;13.80;63.30
70734;DHT22;58320;48.804;9.252;2023-03-24T01:17:18;13.90;62.70
70734;DHT22;58320;48.804;9.252;2023-03-24T01:19:47;14.00;62.70
70734;DHT22;58320;48.804;9.252;2023-03-24T01:22:13;14.00;62.50
70734;DHT22;58320;48.804;9.252;2023-03-24T01:24:39;14.00;62.30
70734;DHT22;58320;48.804;9.252;2023-03-24T01:27:05;14.00;62.00
70734;DHT22;58320;48.804;9.252;2023-03-24T01:29:31;14.00;62.40
70734;DHT22;58320;48.804;9.252;2023-03-24T01:31:57;13.90;62.90
70734;DHT22;58320;48.804;9.252;2023-03-24T01:34:22;13.90;63.60
70734;DHT22;58320;48.804;9.252;2023-03-24T01:36:49;13.80;63.90
70734;DHT22;58320;48.804;9.252;2023-03-24T01:39:15;13.70;64.40
70734;DHT22;58320;48.804;9.252;2023-03-24T01:41:41;13.70;64.40
70734;DHT22;58320;48.804;9.252;2023-03-24T01:44:31;13.70;64.80
70734;DHT22;58320;48.804;9.252;2023-03-24T01:46:58;13.60;64.90
70734;DHT22;58320;48.804;9.252;2023-03-24T01:49:36;13.60;65.10
70734;DHT22;58320;48.804;9.252;2023-03-24T01:52:08;13.60;64.90
70734;DHT22;58320;48.804;9.252;2023-03-24T01:54:41;13.60;65.20
70734;DHT22;58320;48.804;9.252;2023-03-24T01:57:31;13.50;65.60
70734;DHT22;58320;48.804;9.252;2023-03-24T02:00:09;13.50;65.60
70734;DHT22;58320;48.804;9.252;2023-03-24T02:02:38;13.50;65.20
70734;DHT22;58320;48.804;9.252;2023-03-24T02:05:09;13.50;65.40
70734;DHT22;58320;48.804;9.252;2023-03-24T02:10:10;13.40;65.50
70734;DHT22;58320;48.804;9.252;2023-03-24T02:12:39;13.40;65.70
70734;DHT22;58320;48.804;9.252;2023-03-24T02:15:08;13.40;65.90
70734;DHT22;58320;48.804;9.252;2023-03-24T02:41:38;13.20;66.50
70734;DHT22;58320;48.804;9.252;2023-03-24T02:47:18;13.20;66.60
70734;DHT22;58320;48.804;9.252;2023-03-24T02:50:08;13.20;66.50
70734;DHT22;58320;48.804;9.252;2023-03-24T03:01:53;13.70;62.90
70734;DHT22;58320;48.804;9.252;2023-03-24T03:04:32;13.80;62.20
70734;DHT22;58320;48.804;9.252;2023-03-24T03:07:06;14.10;61.30
70734;DHT22;58320;48.804;9.252;2023-03-24T03:09:42;14.20;60.30
70734;DHT22;58320;48.804;9.252;2023-03-24T03:12:14;14.30;60.30
70734;DHT22;58320;48.804;9.252;2023-03-24T03:14:53;14.30;60.10
70734;DHT22;58320;48.804;9.252;2023-03-24T03:17:31;14.30;60.70
70734;DHT22;58320;48.804;9.252;2023-03-24T03:20:06;14.30;60.60
70734;DHT22;58320;48.804;9.252;2023-03-24T03:22:47;14.30;60.50
70734;DHT22;58320;48.804;9.252;2023-03-24T03:25:23;14.30;60.30
70734;DHT22;58320;48.804;9.252;2023-03-24T03:27:53;14.40;60.10
70734;DHT22;58320;48.804;9.252;2023-03-24T03:30:33;14.30;60.20
70734;DHT22;58320;48.804;9.252;2023-03-24T03:33:10;14.40;59.90
70734;DHT22;58320;48.804;9.252;2023-03-24T03:35:53;14.50;59.60
70734;DHT22;58320;48.804;9.252;2023-03-24T03:38:30;14.50;59.60
70734;DHT22;58320;48.804;9.252;2023-03-24T03:41:18;14.50;59.50
70734;DHT22;58320;48.804;9.252;2023-03-24T03:43:45;14.50;59.40
70734;DHT22;58320;48.804;9.252;2023-03-24T03:46:13;14.60;58.70
70734;DHT22;58320;48.804;9.252;2023-03-24T03:48:40;14.60;59.00
70734;DHT22;58320;48.804;9.252;2023-03-24T03:51:07;14.60;59.40
70734;DHT22;58320;48.804;9.252;2023-03-24T03:53:55;14.50;59.60
70734;DHT22;58320;48.804;9.252;2023-03-24T03:56:26;14.40;60.00
70734;DHT22;58320;48.804;9.252;2023-03-24T03:58:53;14.40;60.30
70734;DHT22;58320;48.804;9.252;2023-03-24T04:01:22;14.30;59.80
70734;DHT22;58320;48.804;9.252;2023-03-24T04:07:35;14.40;59.70
70734;DHT22;58320;48.804;9.252;2023-03-24T04:10:28;14.40;59.80
70734;DHT22;58320;48.804;9.252;2023-03-24T04:16:12;14.50;58.90
70734;DHT22;58320;48.804;9.252;2023-03-24T04:18:49;14.50;59.00
70734;DHT22;58320;48.804;9.252;2023-03-24T04:27:32;14.40;59.60
70734;DHT22;58320;48.804;9.252;2023-03-24T04:30:31;14.30;60.20
70734;DHT22;58320;48.804;9.252;2023-03-24T04:33:23;14.30;60.50
70734;DHT22;58320;48.804;9.252;2023-03-24T04:36:49;14.20;60.80
70734;DHT22;58320;48.804;9.252;2023-03-24T04:39:00;14.20;60.60
70734;DHT22;58320;48.804;9.252;2023-03-24T04:41:28;14.30;60.20
70734;DHT22;58320;48.804;9.252;2023-03-24T04:43:56;14.40;59.30
70734;DHT22;58320;48.804;9.252;2023-03-24T04:46:23;14.50;59.20
70734;DHT22;58320;48.804;9.252;2023-03-24T04:48:49;14.60;58.30
70734;DHT22;58320;48.804;9.252;2023-03-24T04:51:17;14.70;58.00
70734;DHT22;58320;48.804;9.252;2023-03-24T04:53:44;14.70;58.20
70734;DHT22;58320;48.804;9.252;2023-03-24T04:56:44;14.70;58.00
70734;DHT22;58320;48.804;9.252;2023-03-24T04:59:12;14.80;58.00
70734;DHT22;58320;48.804;9.252;2023-03-24T05:01:40;14.70;58.10
70734;DHT22;58320;48.804;9.252;2023-03-24T05:04:19;14.70;58.40
70734;DHT22;58320;48.804;9.252;2023-03-24T05:06:46;14.80;58.70
70734;DHT22;58320;48.804;9.252;2023-03-24T05:09:14;14.90;58.60
70734;DHT22;58320;48.804;9.252;2023-03-24T05:11:43;14.90;58.80
70734;DHT22;58320;48.804;9.252;2023-03-24T05:14:09;14.80;59.00
70734;DHT22;58320;48.804;9.252;2023-03-24T05:16:35;14.90;59.00
70734;DHT22;58320;48.804;9.252;2023-03-24T05:19:02;14.90;59.00
70734;DHT22;58320;48.804;9.252;2023-03-24T05:21:29;14.90;59.00
70734;DHT22;58320;48.804;9.252;2023-03-24T05:23:55;15.00;59.10
70734;DHT22;58320;48.804;9.252;2023-03-24T05:26:21;15.00;59.10
70734;DHT22;58320;48.804;9.252;2023-03-24T05:28:46;15.10;59.20
70734;DHT22;58320;48.804;9.252;2023-03-24T05:31:12;15.10;59.40
70734;DHT22;58320;48.804;9.252;2023-03-24T05:33:38;15.20;59.60
70734;DHT22;58320;48.804;9.252;2023-03-24T05:36:05;15.10;61.30
70734;DHT22;58320;48.804;9.252;2023-03-24T05:38:31;14.80;64.00
70734;DHT22;58320;48.804;9.252;2023-03-24T05:41:00;14.50;65.30
70734;DHT22;58320;48.804;9.252;2023-03-24T05:43:26;14.20;66.90
70734;DHT22;58320;48.804;9.252;2023-03-24T05:45:52;13.90;69.30
70734;DHT22;58320;48.804;9.252;2023-03-24T05:48:18;13.70;70.90
70734;DHT22;58320;48.804;9.252;2023-03-24T05:50:44;13.50;71.90
70734;DHT22;58320;48.804;9.252;2023-03-24T05:53:10;13.30;73.00
70734;DHT22;58320;48.804;9.252;2023-03-24T05:55:36;13.20;73.50
70734;DHT22;58320;48.804;9.252;2023-03-24T05:58:02;13.10;74.00
70734;DHT22;58320;48.804;9.252;2023-03-24T06:00:29;13.10;74.50
70734;DHT22;58320;48.804;9.252;2023-03-24T06:02:56;13.00;75.00
70734;DHT22;58320;48.804;9.252;2023-03-24T06:05:23;12.90;76.00
70734;DHT22;58320;48.804;9.252;2023-03-24T06:07:50;12.80;76.50
70734;DHT22;58320;48.804;9.252;2023-03-24T06:10:16;12.80;77.30
70734;DHT22;58320;48.804;9.252;2023-03-24T06:12:43;12.80;78.00
70734;DHT22;58320;48.804;9.252;2023-03-24T06:15:10;12.80;76.80
70734;DHT22;58320;48.804;9.252;2023-03-24T06:17:36;12.80;77.00
70734;DHT22;58320;48.804;9.252;2023-03-24T06:20:03;12.80;77.30
70734;DHT22;58320;48.804;9.252;2023-03-24T06:22:32;12.80;77.20
70734;DHT22;58320;48.804;9.252;2023-03-24T06:24:58;12.90;77.10
70734;DHT22;58320;48.804;9.252;2023-03-24T06:27:25;12.90;77.90
70734;DHT22;58320;48.804;9.252;2023-03-24T06:29:58;12.90;76.90
70734;DHT22;58320;48.804;9.252;2023-03-24T06:32:25;13.00;76.40
70734;DHT22;58320;48.804;9.252;2023-03-24T06:34:51;13.00;78.50
70734;DHT22;58320;48.804;9.252;2023-03-24T06:37:22;13.10;77.40
70734;DHT22;58320;48.804;9.252;2023-03-24T06:39:48;13.20;77.90
70734;DHT22;58320;48.804;9.252;2023-03-24T06:42:14;13.20;77.60
70734;DHT22;58320;48.804;9.252;2023-03-24T06:44:40;13.30;77.70
70734;DHT22;58320;48.804;9.252;2023-03-24T06:47:06;13.30;77.60
70734;DHT22;58320;48.804;9.252;2023-03-24T06:49:32;13.40;77.30
70734;DHT22;58320;48.804;9.252;2023-03-24T06:51:59;13.40;77.30
70734;DHT22;58320;48.804;9.252;2023-03-24T06:54:26;13.50;76.80
70734;DHT22;58320;48.804;9.252;2023-03-24T06:56:52;13.50;76.70
70734;DHT22;58320;48.804;9.252;2023-03-24T06:59:18;13.50;76.90
70734;DHT22;58320;48.804;9.252;2023-03-24T07:01:49;13.60;76.90
70734;DHT22;58320;48.804;9.252;2023-03-24T07:04:16;13.50;76.30
70734;DHT22;58320;48.804;9.252;2023-03-24T07:06:42;13.50;75.20
70734;DHT22;58320;48.804;9.252;2023-03-24T07:09:10;13.50;75.50
70734;DHT22;58320;48.804;9.252;2023-03-24T07:11:37;13.50;75.50
70734;DHT22;58320;48.804;9.252;2023-03-24T07:14:03;13.50;75.50
70734;DHT22;58320;48.804;9.252;2023-03-24T07:16:29;13.50;76.40
70734;DHT22;58320;48.804;9.252;2023-03-24T07:18:55;13.50;76.20
70734;DHT22;58320;48.804;9.252;2023-03-24T07:21:21;13.50;76.90
70734;DHT22;58320;48.804;9.252;2023-03-24T07:23:47;13.40;78.20
70734;DHT22;58320;48.804;9.252;2023-03-24T07:26:12;13.30;80.30
70734;DHT22;58320;48.804;9.252;2023-03-24T07:28:38;13.10;82.30
70734;DHT22;58320;48.804;9.252;2023-03-24T07:31:04;13.00;84.00
70734;DHT22;58320;48.804;9.252;2023-03-24T07:33:35;12.80;86.30
70734;DHT22;58320;48.804;9.252;2023-03-24T07:36:05;12.70;87.00
70734;DHT22;58320;48.804;9.252;2023-03-24T07:38:32;12.60;89.30
70734;DHT22;58320;48.804;9.252;2023-03-24T07:40:58;12.50;91.70
70734;DHT22;58320;48.804;9.252;2023-03-24T07:43:24;12.30;94.90
70734;DHT22;58320;48.804;9.252;2023-03-24T07:45:50;12.20;96.00
70734;DHT22;58320;48.804;9.252;2023-03-24T07:48:16;12.20;96.80
70734;DHT22;58320;48.804;9.252;2023-03-24T07:50:42;12.10;97.60
70734;DHT22;58320;48.804;9.252;2023-03-24T07:53:07;12.10;97.90
70734;DHT22;58320;48.804;9.252;2023-03-24T07:55:38;12.00;99.10
70734;DHT22;58320;48.804;9.252;2023-03-24T07:58:04;12.00;99.50
70734;DHT22;58320;48.804;9.252;2023-03-24T08:00:30;12.00;99.80
70734;DHT22;58320;48.804;9.252;2023-03-24T08:02:58;12.00;99.90
70734;DHT22;58320;48.804;9.252;2023-03-24T08:05:28;12.00;99.90
70734;DHT22;58320;48.804;9.252;2023-03-24T08:07:55;12.00;99.90
70734;DHT22;58320;48.804;9.252;2023-03-24T08:10:29;12.00;99.90
70734;DHT22;58320;48.804;9.252;2023-03-24T08:12:56;12.00;99.90
70734;DHT22;58320;48.804;9.252;2023-03-24T08:15:23;12.00;99.90
70734;DHT22;58320;48.804;9.252;2023-03-24T08:17:50;12.00;99.90
70734;DHT22;58320;48.804;9.252;2023-03-24T08:20:18;12.00;99.90
70734;DHT22;58320;48.804;9.252;2023-03-24T08:22:47;12.10;99.90
70734;DHT22;58320;48.804;9.252;2023-03-24T08:25:15;12.10;99.90
70734;DHT22;58320;48.804;9.252;2023-03-24T08:27:43;12.10;99.90
70734;DHT22;58320;48.804;9.252;2023-03-24T08:30:12;12.20;99.90
70734;DHT22;58320;48.804;9.252;2023-03-24T08:32:52;12.20;99.90
70734;DHT22;58320;48.804;9.252;2023-03-24T08:35:30;12.30;99.90
70734;DHT22;58320;48.804;9.252;2023-03-24T08:37:58;12.20;99.90
70734;DHT22;58320;48.804;9.252;2023-03-24T08:40:26;12.30;99.80
70734;DHT22;58320;48.804;9.252;2023-03-24T08:42:58;12.30;99.90
70734;DHT22;58320;48.804;9.252;2023-03-24T08:45:29;12.40;99.60
70734;DHT22;58320;48.804;9.252;2023-03-24T08:47:57;12.40;98.90
70734;DHT22;58320;48.804;9.252;2023-03-24T08:50:28;12.50;98.90
70734;DHT22;58320;48.804;9.252;2023-03-24T08:52:57;12.50;98.30
70734;DHT22;58320;48.804;9.252;2023-03-24T08:55:23;12.60;97.70
70734;DHT22;58320;48.804;9.252;2023-03-24T08:57:50;12.70;97.40
70734;DHT22;58320;48.804;9.252;2023-03-24T09:00:17;12.80;97.50
70734;DHT22;58320;48.804;9.252;2023-03-24T09:02:45;12.90;95.40
70734;DHT22;58320;48.804;9.252;2023-03-24T09:05:16;13.10;91.40
70734;DHT22;58320;48.804;9.252;2023-03-24T09:07:43;13.30;89.50
70734;DHT22;58320;48.804;9.252;2023-03-24T09:10:10;13.40;88.80
70734;DHT22;58320;48.804;9.252;2023-03-24T09:12:37;13.40;86.80
70734;DHT22;58320;48.804;9.252;2023-03-24T09:15:05;13.50;87.30
70734;DHT22;58320;48.804;9.252;2023-03-24T09:17:31;13.60;84.90
70734;DHT22;58320;48.804;9.252;2023-03-24T09:19:58;13.70;84.70
70734;DHT22;58320;48.804;9.252;2023-03-24T09:22:24;13.60;84.00
70734;DHT22;58320;48.804;9.252;2023-03-24T09:24:49;13.60;83.90
70734;DHT22;58320;48.804;9.252;2023-03-24T09:27:15;13.60;84.30
70734;DHT22;58320;48.804;9.252;2023-03-24T09:29:41;13.70;83.10
70734;DHT22;58320;48.804;9.252;2023-03-24T09:32:08;13.70;83.20
70734;DHT22;58320;48.804;9.252;2023-03-24T09:34:34;13.80;82.90
70734;DHT22;58320;48.804;9.252;2023-03-24T09:37:03;13.90;82.10
70734;DHT22;58320;48.804;9.252;2023-03-24T09:39:30;14.10;81.20
70734;DHT22;58320;48.804;9.252;2023-03-24T09:41:55;14.10;81.50
70734;DHT22;58320;48.804;9.252;2023-03-24T09:44:28;14.10;79.40
70734;DHT22;58320;48.804;9.252;2023-03-24T09:49:39;14.20;79.60
70734;DHT22;58320;48.804;9.252;2023-03-24T09:52:11;14.40;77.50
70734;DHT22;58320;48.804;9.252;2023-03-24T09:54:53;14.60;78.80
70734;DHT22;58320;48.804;9.252;2023-03-24T09:57:31;14.70;76.60
70734;DHT22;58320;48.804;9.252;2023-03-24T10:00:14;14.70;76.00
70734;DHT22;58320;48.804;9.252;2023-03-24T10:02:41;14.90;76.20
70734;DHT22;58320;48.804;9.252;2023-03-24T10:05:16;14.90;76.10
70734;DHT22;58320;48.804;9.252;2023-03-24T10:07:59;15.10;75.50
70734;DHT22;58320;48.804;9.252;2023-03-24T10:11:01;15.30;75.50
70734;DHT22;58320;48.804;9.252;2023-03-24T10:22:38;15.90;71.60
70734;DHT22;58320;48.804;9.252;2023-03-24T10:27:53;15.80;69.30
70734;DHT22;58320;48.804;9.252;2023-03-24T10:30:24;15.60;71.60
70734;DHT22;58320;48.804;9.252;2023-03-24T10:32:52;15.60;69.90
70734;DHT22;58320;48.804;9.252;2023-03-24T10:35:33;15.60;69.10
70734;DHT22;58320;48.804;9.252;2023-03-24T10:38:05;15.70;68.40
70734;DHT22;58320;48.804;9.252;2023-03-24T10:40:43;15.80;68.20
70734;DHT22;58320;48.804;9.252;2023-03-24T10:43:10;15.90;67.20
70734;DHT22;58320;48.804;9.252;2023-03-24T10:45:39;16.00;67.20
70734;DHT22;58320;48.804;9.252;2023-03-24T10:48:11;16.00;66.00
70734;DHT22;58320;48.804;9.252;2023-03-24T10:50:47;16.10;65.40
70734;DHT22;58320;48.804;9.252;2023-03-24T10:53:18;16.30;63.80
70734;DHT22;58320;48.804;9.252;2023-03-24T10:55:45;16.40;62.30
70734;DHT22;58320;48.804;9.252;2023-03-24T10:58:20;16.30;63.00
70734;DHT22;58320;48.804;9.252;2023-03-24T11:00:54;16.40;62.50
70734;DHT22;58320;48.804;9.252;2023-03-24T11:03:28;16.70;62.20
70734;DHT22;58320;48.804;9.252;2023-03-24T11:06:03;16.80;61.40
70734;DHT22;58320;48.804;9.252;2023-03-24T11:08:39;16.70;60.50
70734;DHT22;58320;48.804;9.252;2023-03-24T11:11:34;16.70;61.50
70734;DHT22;58320;48.804;9.252;2023-03-24T11:14:00;16.60;60.60
70734;DHT22;58320;48.804;9.252;2023-03-24T11:16:35;16.60;61.50
70734;DHT22;58320;48.804;9.252;2023-03-24T11:19:05;16.70;61.20
70734;DHT22;58320;48.804;9.252;2023-03-24T11:21:35;17.20;58.60
70734;DHT22;58320;48.804;9.252;2023-03-24T11:24:08;17.20;58.60
70734;DHT22;58320;48.804;9.252;2023-03-24T11:26:38;17.10;58.30
70734;DHT22;58320;48.804;9.252;2023-03-24T11:29:07;16.90;57.90
70734;DHT22;58320;48.804;9.252;2023-03-24T11:31:40;16.90;58.20
70734;DHT22;58320;48.804;9.252;2023-03-24T11:34:13;17.00;58.00
70734;DHT22;58320;48.804;9.252;2023-03-24T11:37:41;17.00;57.50
70734;DHT22;58320;48.804;9.252;2023-03-24T11:42:46;17.40;56.70
70734;DHT22;58320;48.804;9.252;2023-03-24T11:45:37;17.30;57.00
70734;DHT22;58320;48.804;9.252;2023-03-24T11:48:19;17.20;57.40
70734;DHT22;58320;48.804;9.252;2023-03-24T11:50:51;17.00;57.80
70734;DHT22;58320;48.804;9.252;2023-03-24T11:53:21;17.00;57.40
70734;DHT22;58320;48.804;9.252;2023-03-24T12:17:41;17.00;56.30
70734;DHT22;58320;48.804;9.252;2023-03-24T12:26:21;16.70;55.50
70734;DHT22;58320;48.804;9.252;2023-03-24T12:31:54;16.60;55.70
70734;DHT22;58320;48.804;9.252;2023-03-24T12:34:46;16.40;55.80
70734;DHT22;58320;48.804;9.252;2023-03-24T12:46:49;16.30;56.00
70734;DHT22;58320;48.804;9.252;2023-03-24T13:01:32;15.90;57.60
70734;DHT22;58320;48.804;9.252;2023-03-24T13:04:17;15.90;57.80
70734;DHT22;58320;48.804;9.252;2023-03-24T13:06:55;15.80;58.20
70734;DHT22;58320;48.804;9.252;2023-03-24T13:15:30;15.90;58.20
70734;DHT22;58320;48.804;9.252;2023-03-24T13:20:54;15.90;58.50
70734;DHT22;58320;48.804;9.252;2023-03-24T13:32:14;15.70;59.60
70734;DHT22;58320;48.804;9.252;2023-03-24T13:38:07;15.50;59.80
70734;DHT22;58320;48.804;9.252;2023-03-24T13:40:40;15.40;60.00
70734;DHT22;58320;48.804;9.252;2023-03-24T13:43:15;15.30;60.90
70734;DHT22;58320;48.804;9.252;2023-03-24T13:45:45;15.10;61.80
70734;DHT22;58320;48.804;9.252;2023-03-24T13:48:38;14.90;63.90
70734;DHT22;58320;48.804;9.252;2023-03-24T13:51:14;14.60;67.70
70734;DHT22;58320;48.804;9.252;2023-03-24T13:53:47;14.10;71.60
70734;DHT22;58320;48.804;9.252;2023-03-24T13:56:26;13.50;72.60
70734;DHT22;58320;48.804;9.252;2023-03-24T14:01:34;12.90;76.90
70734;DHT22;58320;48.804;9.252;2023-03-24T14:04:24;12.80;75.90
70734;DHT22;58320;48.804;9.252;2023-03-24T14:15:32;13.30;74.50
70734;DHT22;58320;48.804;9.252;2023-03-24T14:23:43;14.00;71.00
70734;DHT22;58320;48.804;9.252;2023-03-24T14:26:28;14.10;69.20
70734;DHT22;58320;48.804;9.252;2023-03-24T14:28:58;14.00;70.70
70734;DHT22;58320;48.804;9.252;2023-03-24T14:31:31;13.80;72.70
70734;DHT22;58320;48.804;9.252;2023-03-24T14:34:13;13.40;73.90
70734;DHT22;58320;48.804;9.252;2023-03-24T14:36:44;12.90;78.20
70734;DHT22;58320;48.804;9.252;2023-03-24T14:39:32;12.30;83.90
70734;DHT22;58320;48.804;9.252;2023-03-24T14:47:58;11.20;92.60
70734;DHT22;58320;48.804;9.252;2023-03-24T14:50:26;11.00;94.30
70734;DHT22;58320;48.804;9.252;2023-03-24T14:53:01;10.90;95.20
70734;DHT22;58320;48.804;9.252;2023-03-24T14:55:28;10.80;96.90
70734;DHT22;58320;48.804;9.252;2023-03-24T14:58:00;10.70;97.40
70734;DHT22;58320;48.804;9.252;2023-03-24T15:00:37;10.60;98.40
70734;DHT22;58320;48.804;9.252;2023-03-24T15:03:23;10.50;99.20
70734;DHT22;58320;48.804;9.252;2023-03-24T15:06:10;10.60;99.90
70734;DHT22;58320;48.804;9.252;2023-03-24T15:08:55;10.60;99.90
70734;DHT22;58320;48.804;9.252;2023-03-24T15:11:37;10.50;99.90
70734;DHT22;58320;48.804;9.252;2023-03-24T15:14:05;10.50;99.90
70734;DHT22;58320;48.804;9.252;2023-03-24T15:16:35;10.40;99.90
70734;DHT22;58320;48.804;9.252;2023-03-24T15:19:17;10.40;99.90
70734;DHT22;58320;48.804;9.252;2023-03-24T15:21:56;10.40;99.90
70734;DHT22;58320;48.804;9.252;2023-03-24T15:27:18;10.50;99.90
70734;DHT22;58320;48.804;9.252;2023-03-24T15:29:53;10.60;99.90
70734;DHT22;58320;48.804;9.252;2023-03-24T15:32:25;10.50;99.90
70734;DHT22;58320;48.804;9.252;2023-03-24T15:34:58;10.50;99.90
70734;DHT22;58320;48.804;9.252;2023-03-24T15:37:39;10.60;99.90
70734;DHT22;58320;48.804;9.252;2023-03-24T15:43:01;10.70;99.90
70734;DHT22;58320;48.804;9.252;2023-03-24T15:45:43;10.70;99.90
70734;DHT22;58320;48.804;9.252;2023-03-24T15:48:17;10.80;99.90
70734;DHT22;58320;48.804;9.252;2023-03-24T15:51:02;10.90;99.90
70734;DHT22;58320;48.804;9.252;2023-03-24T15:53:40;11.00;99.90
70734;DHT22;58320;48.804;9.252;2023-03-24T15:56:15;11.00;99.90
70734;DHT22;58320;48.804;9.252;2023-03-24T15:58:47;11.10;99.90
70734;DHT22;58320;48.804;9.252;2023-03-24T16:01:23;11.10;99.90
70734;DHT22;58320;48.804;9.252;2023-03-24T16:03:56;11.10;99.90
70734;DHT22;58320;48.804;9.252;2023-03-24T16:06:33;11.20;99.90
70734;DHT22;58320;48.804;9.252;2023-03-24T16:09:14;11.30;99.90
70734;DHT22;58320;48.804;9.252;2023-03-24T16:11:41;11.30;99.40
70734;DHT22;58320;48.804;9.252;2023-03-24T16:14:33;11.40;98.80
70734;DHT22;58320;48.804;9.252;2023-03-24T16:17:01;11.40;98.30
70734;DHT22;58320;48.804;9.252;2023-03-24T16:19:29;11.30;96.70
70734;DHT22;58320;48.804;9.252;2023-03-24T16:21:55;11.30;97.10
70734;DHT22;58320;48.804;9.252;2023-03-24T16:24:22;11.30;96.40
70734;DHT22;58320;48.804;9.252;2023-03-24T16:26:48;11.30;96.00
70734;DHT22;58320;48.804;9.252;2023-03-24T16:29:18;11.40;95.40
70734;DHT22;58320;48.804;9.252;2023-03-24T16:31:48;11.40;95.10
70734;DHT22;58320;48.804;9.252;2023-03-24T16:34:16;11.40;94.20
70734;DHT22;58320;48.804;9.252;2023-03-24T16:36:44;11.50;94.30
70734;DHT22;58320;48.804;9.252;2023-03-24T16:39:18;11.60;90.60
70734;DHT22;58320;48.804;9.252;2023-03-24T16:41:46;11.80;89.40
70734;DHT22;58320;48.804;9.252;2023-03-24T16:44:12;12.00;88.00
70734;DHT22;58320;48.804;9.252;2023-03-24T16:46:38;12.20;84.60
70734;DHT22;58320;48.804;9.252;2023-03-24T16:49:11;12.30;82.50
70734;DHT22;58320;48.804;9.252;2023-03-24T16:51:39;12.50;82.00
70734;DHT22;58320;48.804;9.252;2023-03-24T16:54:05;12.70;83.00
70734;DHT22;58320;48.804;9.252;2023-03-24T16:56:32;12.80;82.60
70734;DHT22;58320;48.804;9.252;2023-03-24T16:58:57;12.90;81.80
70734;DHT22;58320;48.804;9.252;2023-03-24T17:04:03;12.90;80.30
70734;DHT22;58320;48.804;9.252;2023-03-24T17:06:35;12.80;78.90
70734;DHT22;58320;48.804;9.252;2023-03-24T17:09:02;12.60;78.70
70734;DHT22;58320;48.804;9.252;2023-03-24T17:11:35;12.60;80.00
70734;DHT22;58320;48.804;9.252;2023-03-24T17:14:09;12.40;80.70
70734;DHT22;58320;48.804;9.252;2023-03-24T17:16:46;12.30;80.30
70734;DHT22;58320;48.804;9.252;2023-03-24T17:19:16;12.20;80.30
70734;DHT22;58320;48.804;9.252;2023-03-24T17:24:19;12.10;80.10
70734;DHT22;58320;48.804;9.252;2023-03-24T17:26:46;12.00;81.60
70734;DHT22;58320;48.804;9.252;2023-03-24T17:29:12;11.90;81.50
70734;DHT22;58320;48.804;9.252;2023-03-24T17:31:38;11.90;81.60
70734;DHT22;58320;48.804;9.252;2023-03-24T17:34:04;11.80;81.70
70734;DHT22;58320;48.804;9.252;2023-03-24T17:36:30;11.70;82.10
70734;DHT22;58320;48.804;9.252;2023-03-24T17:38:56;11.70;82.50
70734;DHT22;58320;48.804;9.252;2023-03-24T17:41:22;11.60;82.60
70734;DHT22;58320;48.804;9.252;2023-03-24T17:43:48;11.50;82.20
70734;DHT22;58320;48.804;9.252;2023-03-24T17:46:13;11.50;82.10
70734;DHT22;58320;48.804;9.252;2023-03-24T17:48:39;11.40;82.10
70734;DHT22;58320;48.804;9.252;2023-03-24T17:51:05;11.30;82.00
70734;DHT22;58320;48.804;9.252;2023-03-24T17:53:31;11.30;81.80
70734;DHT22;58320;48.804;9.252;2023-03-24T17:56:00;11.30;81.70
70734;DHT22;58320;48.804;9.252;2023-03-24T17:58:31;11.20;81.90
70734;DHT22;58320;48.804;9.252;2023-03-24T18:00:58;11.20;80.60
70734;DHT22;58320;48.804;9.252;2023-03-24T18:03:25;11.30;80.60
70734;DHT22;58320;48.804;9.252;2023-03-24T18:05:52;11.20;80.90
70734;DHT22;58320;48.804;9.252;2023-03-24T18:08:18;11.00;81.00
70734;DHT22;58320;48.804;9.252;2023-03-24T18:10:44;11.10;80.30
70734;DHT22;58320;48.804;9.252;2023-03-24T18:13:10;11.10;80.50
70734;DHT22;58320;48.804;9.252;2023-03-24T18:15:40;11.10;79.70
70734;DHT22;58320;48.804;9.252;2023-03-24T18:18:06;11.10;79.50
70734;DHT22;58320;48.804;9.252;2023-03-24T18:20:32;11.20;79.10
70734;DHT22;58320;48.804;9.252;2023-03-24T18:23:00;11.10;79.00
70734;DHT22;58320;48.804;9.252;2023-03-24T18:25:26;11.10;78.80
70734;DHT22;58320;48.804;9.252;2023-03-24T18:27:52;11.00;79.80
70734;DHT22;58320;48.804;9.252;2023-03-24T18:30:19;11.00;80.00
70734;DHT22;58320;48.804;9.252;2023-03-24T18:32:46;10.90;80.20
70734;DHT22;58320;48.804;9.252;2023-03-24T18:35:12;10.80;80.00
70734;DHT22;58320;48.804;9.252;2023-03-24T18:37:40;10.80;79.80
70734;DHT22;58320;48.804;9.252;2023-03-24T18:40:07;10.80;80.60
70734;DHT22;58320;48.804;9.252;2023-03-24T18:42:35;10.70;80.70
70734;DHT22;58320;48.804;9.252;2023-03-24T18:45:02;10.60;80.50
70734;DHT22;58320;48.804;9.252;2023-03-24T18:47:28;10.60;80.50
70734;DHT22;58320;48.804;9.252;2023-03-24T18:49:54;10.70;79.70